Time;durP1;ratioP1;P1;durP2;ratioP2;P2;SDS_P1;SDS_P2;PMS_P1;PMS_P2;Temp;Humidity;BMP_temperature;BMP_pressure;BME280_temperature;BME280_humidity;BME280_pressure;Samples;Min_cycle;Max_cycle;Signal;HPM_P1;HPM_P2
2021/03/02 00:01:27;;;;;;;6.53;4.67;;;5.50;85.40;;;;;;5049616;28;20307;-83
2021/03/02 00:03:53;;;;;;;6.00;5.07;;;5.50;84.50;;;;;;5047738;28;20199;-83
2021/03/02 00:06:19;;;;;;;5.40;4.77;;;5.50;85.00;;;;;;5052917;28;20253;-83
2021/03/02 00:08:45;;;;;;;7.30;4.47;;;5.40;84.90;;;;;;5051205;28;20190;-83
2021/03/02 00:11:12;;;;;;;5.07;3.73;;;5.40;85.50;;;;;;5055515;28;20646;-83
2021/03/02 00:13:38;;;;;;;6.73;4.47;;;5.40;85.50;;;;;;5064403;28;20186;-83
2021/03/02 00:16:05;;;;;;;7.13;4.63;;;5.40;85.40;;;;;;5042474;28;20195;-83
2021/03/02 00:18:45;;;;;;;6.43;4.67;;;5.30;85.40;;;;;;5054115;28;20216;-83
2021/03/02 00:21:17;;;;;;;7.50;4.13;;;5.30;85.40;;;;;;5057693;28;20565;-84
2021/03/02 00:23:46;;;;;;;5.47;4.27;;;5.20;84.80;;;;;;5047580;28;20534;-84
2021/03/02 00:26:15;;;;;;;6.23;5.13;;;6.00;86.00;;;;;;5054203;28;20198;-84
2021/03/02 00:28:42;;;;;;;5.37;4.33;;;5.20;85.50;;;;;;5052464;28;20650;-82
2021/03/02 00:31:08;;;;;;;10.47;4.83;;;5.10;86.40;;;;;;5052951;28;20273;-82
2021/03/02 00:33:34;;;;;;;8.83;5.57;;;5.10;86.60;;;;;;5050586;28;20215;-82
2021/03/02 00:36:00;;;;;;;6.77;5.60;;;5.00;86.60;;;;;;5053597;28;20195;-82
2021/03/02 00:38:25;;;;;;;9.40;5.40;;;5.00;86.90;;;;;;5049314;28;20250;-82
2021/03/02 00:40:51;;;;;;;8.37;4.63;;;5.00;86.80;;;;;;5050835;28;20186;-82
2021/03/02 00:43:18;;;;;;;6.17;4.93;;;4.90;87.30;;;;;;5053440;28;20191;-82
2021/03/02 00:45:44;;;;;;;6.83;4.80;;;;;;;;;;5054228;28;20662;-84
2021/03/02 00:48:10;;;;;;;7.67;4.23;;;;;;;;;;5059905;28;20187;-82
2021/03/02 00:50:36;;;;;;;4.57;4.13;;;4.90;87.20;;;;;;5058908;28;20300;-82
2021/03/02 00:53:01;;;;;;;8.33;4.83;;;4.80;87.90;;;;;;5066401;28;20183;-82
2021/03/02 00:55:27;;;;;;;4.90;3.60;;;4.80;88.10;;;;;;5046750;28;20222;-82
2021/03/02 00:57:53;;;;;;;6.73;4.87;;;4.80;88.30;;;;;;5050224;28;20259;-81
2021/03/02 01:00:19;;;;;;;7.27;4.70;;;4.80;88.20;;;;;;5045884;28;20201;-82
2021/03/02 01:02:44;;;;;;;6.30;4.17;;;4.80;87.80;;;;;;5051389;28;20202;-82
2021/03/02 01:05:11;;;;;;;5.70;4.60;;;4.80;88.30;;;;;;5057665;28;20230;-82
2021/03/02 01:07:36;;;;;;;4.70;2.80;;;4.80;88.20;;;;;;5055572;28;20327;-82
2021/03/02 01:10:07;;;;;;;6.60;4.83;;;4.80;88.20;;;;;;5050855;28;20186;-83
2021/03/02 01:12:33;;;;;;;4.90;3.50;;;4.70;88.30;;;;;;5069350;28;20190;-82
2021/03/02 01:15:00;;;;;;;3.47;3.17;;;4.70;88.40;;;;;;5051171;28;20187;-82
2021/03/02 01:17:26;;;;;;;6.77;4.27;;;4.70;88.40;;;;;;5052465;28;20217;-82
2021/03/02 01:19:52;;;;;;;6.17;4.70;;;4.70;88.30;;;;;;5052681;28;20191;-82
2021/03/02 01:22:18;;;;;;;6.30;4.70;;;5.00;89.30;;;;;;5048099;28;20190;-82
2021/03/02 01:24:44;;;;;;;4.43;3.53;;;4.60;89.20;;;;;;5051421;28;20186;-82
2021/03/02 01:27:10;;;;;;;4.87;4.00;;;4.60;88.80;;;;;;5049432;28;20669;-82
2021/03/02 01:29:36;;;;;;;5.90;4.53;;;4.60;89.40;;;;;;5050426;28;20205;-82
2021/03/02 01:32:02;;;;;;;4.47;2.70;;;4.60;89.50;;;;;;5052595;28;20198;-82
2021/03/02 01:34:27;;;;;;;6.90;4.33;;;4.60;89.70;;;;;;5055834;28;20186;-82
2021/03/02 01:36:53;;;;;;;4.87;4.07;;;4.60;89.40;;;;;;5049599;28;20753;-82
2021/03/02 01:39:19;;;;;;;5.57;4.20;;;4.60;89.30;;;;;;5051810;28;20498;-82
2021/03/02 01:42:03;;;;;;;6.20;4.87;;;4.60;89.30;;;;;;5052327;28;20243;-82
2021/03/02 01:44:29;;;;;;;7.43;4.80;;;4.50;89.20;;;;;;5049755;28;20232;-82
2021/03/02 01:46:56;;;;;;;6.37;4.40;;;4.50;88.50;;;;;;5052433;28;20267;-83
2021/03/02 01:49:22;;;;;;;4.90;3.97;;;4.50;89.20;;;;;;5052879;28;20210;-82
2021/03/02 01:51:48;;;;;;;6.57;4.73;;;4.50;89.30;;;;;;5066993;28;20253;-82
2021/03/02 01:54:15;;;;;;;5.13;4.47;;;4.50;88.90;;;;;;5056821;28;20171;-82
2021/03/02 01:56:42;;;;;;;6.40;4.67;;;4.50;89.20;;;;;;5069471;28;20217;-82
2021/03/02 01:59:09;;;;;;;6.27;4.40;;;4.40;89.30;;;;;;5050198;28;20191;-82
2021/03/02 02:01:35;;;;;;;6.23;4.33;;;4.40;89.40;;;;;;5051142;28;20313;-82
2021/03/02 02:04:23;;;;;;;8.83;5.30;;;4.40;88.90;;;;;;5053618;28;20214;-82
2021/03/02 02:06:57;;;;;;;5.90;4.33;;;4.40;89.60;;;;;;5056486;28;20203;-82
2021/03/02 02:09:42;;;;;;;4.67;3.47;;;4.40;89.90;;;;;;5048510;28;20194;-82
2021/03/02 02:12:18;;;;;;;6.70;4.87;;;4.30;90.10;;;;;;5061261;28;20217;-82
2021/03/02 02:15:03;;;;;;;7.40;4.97;;;4.30;90.20;;;;;;5058681;28;20190;-82
2021/03/02 02:17:33;;;;;;;7.67;5.17;;;4.30;90.30;;;;;;5058421;28;20230;-82
2021/03/02 02:20:01;;;;;;;6.73;4.63;;;4.30;90.30;;;;;;5057100;28;20183;-82
2021/03/02 02:22:40;;;;;;;4.63;4.07;;;4.20;90.30;;;;;;5056859;28;20269;-82
2021/03/02 02:25:14;;;;;;;6.27;4.70;;;4.20;90.30;;;;;;5054364;28;20186;-82
2021/03/02 02:27:41;;;;;;;4.53;4.03;;;4.20;90.30;;;;;;5058099;28;20236;-82
2021/03/02 02:30:08;;;;;;;8.20;5.20;;;4.20;90.30;;;;;;5059147;28;20195;-82
2021/03/02 02:32:37;;;;;;;10.07;3.90;;;4.10;90.30;;;;;;5055524;28;20225;-82
2021/03/02 02:35:04;;;;;;;6.93;4.90;;;4.10;90.40;;;;;;5056343;28;20198;-82
2021/03/02 02:37:32;;;;;;;7.67;5.00;;;4.10;90.70;;;;;;5059162;28;20230;-82
2021/03/02 02:40:00;;;;;;;6.07;4.57;;;4.10;90.50;;;;;;5062675;28;20187;-82
2021/03/02 02:42:28;;;;;;;4.97;3.97;;;4.00;90.60;;;;;;5063210;28;20194;-82
2021/03/02 02:44:55;;;;;;;7.87;4.80;;;4.00;90.70;;;;;;5061790;28;20184;-83
2021/03/02 02:47:21;;;;;;;7.03;4.80;;;4.00;90.80;;;;;;5060060;28;20249;-83
2021/03/02 02:49:48;;;;;;;8.40;4.43;;;4.00;90.60;;;;;;5057527;28;20187;-82
2021/03/02 02:52:16;;;;;;;4.77;4.23;;;4.00;90.70;;;;;;5063301;28;20289;-83
2021/03/02 02:54:44;;;;;;;8.67;5.13;;;4.00;91.00;;;;;;5062060;28;20237;-82
2021/03/02 02:57:13;;;;;;;5.33;4.20;;;3.90;90.70;;;;;;5063204;28;20210;-82
2021/03/02 02:59:41;;;;;;;8.73;5.13;;;3.90;90.90;;;;;;5054098;28;20198;-82
2021/03/02 03:02:16;;;;;;;9.43;4.83;;;3.90;90.90;;;;;;5059736;28;20216;-82
2021/03/02 03:04:46;;;;;;;5.47;4.00;;;3.90;90.70;;;;;;5062803;28;20166;-82
2021/03/02 03:07:22;;;;;;;7.63;4.00;;;3.80;90.60;;;;;;5060075;28;20186;-82
2021/03/02 03:09:51;;;;;;;6.30;4.53;;;3.80;90.90;;;;;;5070679;28;20198;-83
2021/03/02 03:12:18;;;;;;;8.70;5.20;;;3.80;90.90;;;;;;5060124;28;20197;-83
2021/03/02 03:14:53;;;;;;;6.17;4.83;;;3.80;90.90;;;;;;5063060;28;20186;-83
2021/03/02 03:17:20;;;;;;;13.43;5.93;;;3.90;90.90;;;;;;5059223;28;20289;-83
2021/03/02 03:19:47;;;;;;;7.77;4.77;;;3.80;90.60;;;;;;5060479;28;20190;-83
2021/03/02 03:22:15;;;;;;;8.60;5.13;;;3.90;91.30;;;;;;5052508;28;20284;-83
2021/03/02 03:24:41;;;;;;;10.40;6.37;;;3.90;90.70;;;;;;5063294;28;20246;-83
2021/03/02 03:27:07;;;;;;;7.43;5.13;;;3.90;90.90;;;;;;5062183;28;20262;-85
2021/03/02 03:29:35;;;;;;;8.37;5.20;;;3.80;90.90;;;;;;5059256;28;20202;-85
2021/03/02 03:32:02;;;;;;;7.80;4.33;;;3.90;90.90;;;;;;5058844;28;20186;-85
2021/03/02 03:34:28;;;;;;;4.40;3.00;;;3.80;90.60;;;;;;5058692;28;20203;-85
2021/03/02 03:36:56;;;;;;;7.43;4.60;;;3.70;90.80;;;;;;5059567;28;20616;-85
2021/03/02 03:39:22;;;;;;;4.40;3.57;;;3.70;91.20;;;;;;5062963;28;20177;-85
2021/03/02 03:41:49;;;;;;;2.50;2.30;;;3.60;91.30;;;;;;5059855;28;20240;-85
2021/03/02 03:44:15;;;;;;;9.93;6.73;;;3.60;91.50;;;;;;5051268;28;20182;-84
2021/03/02 03:46:40;;;;;;;7.43;4.60;;;5.20;92.20;;;;;;5055085;28;20190;-85
2021/03/02 03:49:06;;;;;;;4.17;3.27;;;3.50;91.70;;;;;;5053712;28;20194;-85
2021/03/02 03:51:34;;;;;;;6.77;4.93;;;3.50;91.70;;;;;;5053507;28;20190;-85
2021/03/02 03:54:00;;;;;;;9.40;4.93;;;3.50;92.00;;;;;;5056605;28;20198;-85
2021/03/02 03:56:26;;;;;;;7.83;4.87;;;3.50;92.00;;;;;;5056280;28;20472;-85
2021/03/02 03:58:52;;;;;;;7.73;4.63;;;3.50;92.20;;;;;;5056617;28;20282;-85
2021/03/02 04:01:18;;;;;;;8.47;5.17;;;3.40;91.70;;;;;;5046693;28;20199;-85
2021/03/02 04:03:46;;;;;;;5.70;4.53;;;3.50;91.70;;;;;;5056230;28;20681;-84
2021/03/02 04:06:13;;;;;;;7.37;4.47;;;3.50;91.90;;;;;;5058597;28;20186;-85
2021/03/02 04:08:40;;;;;;;6.73;4.50;;;3.50;91.50;;;;;;5052957;28;20611;-85
2021/03/02 04:11:06;;;;;;;6.50;5.13;;;3.40;91.70;;;;;;5058977;28;20202;-85
2021/03/02 04:13:32;;;;;;;7.23;4.53;;;3.40;91.80;;;;;;5056422;28;20210;-85
2021/03/02 04:15:58;;;;;;;10.80;6.30;;;5.10;92.60;;;;;;5055137;28;20194;-85
2021/03/02 04:18:25;;;;;;;7.83;5.20;;;;;;;;;;5056098;28;20219;-84
2021/03/02 04:20:51;;;;;;;7.23;4.87;;;3.40;91.70;;;;;;5047155;28;20262;-83
2021/03/02 04:23:16;;;;;;;7.37;5.63;;;3.40;92.00;;;;;;5054260;28;20203;-84
2021/03/02 04:25:42;;;;;;;9.87;6.27;;;3.40;91.80;;;;;;5055710;28;20245;-84
2021/03/02 04:28:08;;;;;;;5.47;4.60;;;3.40;91.60;;;;;;5050156;28;20198;-84
2021/03/02 04:30:34;;;;;;;9.10;5.30;;;3.40;91.00;;;;;;5042758;28;20203;-85
2021/03/02 04:33:01;;;;;;;5.37;4.13;;;3.40;91.20;;;;;;5040785;28;20183;-85
2021/03/02 04:35:28;;;;;;;7.87;4.77;;;3.50;91.00;;;;;;5047808;28;20257;-85
2021/03/02 04:37:54;;;;;;;9.77;6.07;;;3.40;90.90;;;;;;5046876;28;20272;-84
2021/03/02 04:40:19;;;;;;;6.27;4.57;;;3.50;90.80;;;;;;5045533;28;20178;-84
2021/03/02 04:42:45;;;;;;;6.00;4.53;;;3.50;90.70;;;;;;5048539;28;20184;-84
2021/03/02 04:45:13;;;;;;;5.97;4.57;;;3.50;90.70;;;;;;5049818;28;20186;-85
2021/03/02 04:47:41;;;;;;;6.37;4.23;;;3.40;90.40;;;;;;5054431;28;20193;-84
2021/03/02 04:50:07;;;;;;;8.40;3.63;;;3.40;90.70;;;;;;5055678;28;20222;-84
2021/03/02 04:52:32;;;;;;;6.13;3.90;;;3.40;90.70;;;;;;5057800;28;20626;-84
2021/03/02 04:54:58;;;;;;;10.57;4.50;;;3.30;90.70;;;;;;5058619;28;20220;-84
2021/03/02 04:57:24;;;;;;;6.87;3.40;;;3.30;90.70;;;;;;5055610;28;20282;-84
2021/03/02 04:59:50;;;;;;;6.40;4.00;;;3.30;90.70;;;;;;5055880;28;21058;-85
2021/03/02 05:02:15;;;;;;;6.23;4.10;;;3.40;90.20;;;;;;5051722;28;20301;-85
2021/03/02 05:04:41;;;;;;;1.53;1.43;;;3.40;90.40;;;;;;5056906;28;20189;-85
2021/03/02 05:07:07;;;;;;;4.27;2.90;;;3.40;89.60;;;;;;5047347;28;20195;-85
2021/03/02 05:09:33;;;;;;;4.90;3.73;;;3.50;89.20;;;;;;5054630;28;20508;-84
2021/03/02 05:11:58;;;;;;;8.90;4.67;;;3.50;88.80;;;;;;5059528;28;20209;-85
2021/03/02 05:14:24;;;;;;;5.20;4.33;;;3.60;88.40;;;;;;5058136;28;20201;-85
2021/03/02 05:16:50;;;;;;;6.87;3.80;;;3.60;87.60;;;;;;5059544;28;20241;-85
2021/03/02 05:19:16;;;;;;;3.97;3.37;;;3.60;87.30;;;;;;5059713;28;20198;-85
2021/03/02 05:21:42;;;;;;;10.67;4.57;;;3.60;87.30;;;;;;5058597;28;20179;-85
2021/03/02 05:24:08;;;;;;;6.30;4.40;;;3.60;87.30;;;;;;5057048;28;20214;-85
2021/03/02 05:26:33;;;;;;;10.27;4.70;;;3.50;87.10;;;;;;5045798;28;20632;-85
2021/03/02 05:28:59;;;;;;;8.73;4.70;;;3.50;87.20;;;;;;5042391;28;20197;-85
2021/03/02 05:31:25;;;;;;;8.67;4.50;;;3.50;86.80;;;;;;5051873;28;20210;-85
2021/03/02 05:33:51;;;;;;;6.93;4.13;;;3.50;85.60;;;;;;5057749;28;20191;-86
2021/03/02 05:36:17;;;;;;;6.43;4.57;;;3.50;86.20;;;;;;5060628;28;20247;-86
2021/03/02 05:38:43;;;;;;;5.70;4.40;;;3.50;86.20;;;;;;5057330;28;21226;-85
2021/03/02 05:41:10;;;;;;;8.93;5.23;;;3.50;86.20;;;;;;5059226;28;20667;-84
2021/03/02 05:43:39;;;;;;;6.13;4.77;;;3.50;86.50;;;;;;5055438;28;20187;-85
2021/03/02 05:46:05;;;;;;;4.33;3.77;;;3.40;86.20;;;;;;5056645;28;20197;-85
2021/03/02 05:48:31;;;;;;;7.47;4.73;;;3.40;86.60;;;;;;5064588;28;20933;-85
2021/03/02 05:50:57;;;;;;;8.23;4.50;;;3.40;86.30;;;;;;5059332;28;20182;-85
2021/03/02 05:53:23;;;;;;;6.03;4.17;;;3.30;86.10;;;;;;5060265;28;20194;-85
2021/03/02 05:55:50;;;;;;;6.67;4.43;;;3.30;86.70;;;;;;5059517;28;20178;-85
2021/03/02 05:58:17;;;;;;;5.10;3.70;;;3.30;87.10;;;;;;5055742;28;20230;-85
2021/03/02 06:00:43;;;;;;;7.00;4.33;;;3.30;86.80;;;;;;5049318;28;20235;-85
2021/03/02 06:03:10;;;;;;;7.07;4.10;;;3.20;86.90;;;;;;5047454;28;20203;-85
2021/03/02 06:05:37;;;;;;;6.60;4.63;;;3.20;87.30;;;;;;5048964;28;20199;-85
2021/03/02 06:08:03;;;;;;;7.57;4.13;;;3.20;86.90;;;;;;5055497;28;20222;-85
2021/03/02 06:10:33;;;;;;;9.50;4.20;;;3.10;87.50;;;;;;5054191;28;20265;-85
2021/03/02 06:12:59;;;;;;;7.47;4.67;;;3.10;88.10;;;;;;5042512;28;20187;-85
2021/03/02 06:15:27;;;;;;;5.60;4.10;;;3.10;88.20;;;;;;5053471;28;20562;-86
2021/03/02 06:18:12;;;;;;;5.87;4.40;;;3.10;88.30;;;;;;5054583;28;20298;-85
2021/03/02 06:20:40;;;;;;;8.13;4.80;;;3.10;88.00;;;;;;5050359;28;20823;-86
2021/03/02 06:23:45;;;;;;;7.70;5.40;;;3.10;88.50;;;;;;5054340;28;20182;-85
2021/03/02 06:26:10;;;;;;;6.73;4.57;;;3.10;88.50;;;;;;5000987;28;20192;-85
2021/03/02 06:28:37;;;;;;;5.77;4.43;;;3.00;88.80;;;;;;4998944;28;20257;-85
2021/03/02 06:31:03;;;;;;;7.53;4.13;;;3.10;89.30;;;;;;5003655;28;20302;-85
2021/03/02 06:33:29;;;;;;;7.13;3.50;;;3.10;88.80;;;;;;5001994;28;20195;-85
2021/03/02 06:35:54;;;;;;;6.87;4.40;;;3.10;88.40;;;;;;4998889;28;20239;-86
2021/03/02 06:38:32;;;;;;;8.47;3.70;;;3.10;88.40;;;;;;4998530;28;20232;-85
2021/03/02 06:40:58;;;;;;;5.03;3.80;;;3.20;88.40;;;;;;5014788;28;20184;-86
2021/03/02 06:43:36;;;;;;;8.37;4.30;;;3.20;87.50;;;;;;5001906;28;20203;-87
2021/03/02 06:46:08;;;;;;;7.73;4.63;;;3.30;86.70;;;;;;5006593;28;20328;-85
2021/03/02 06:48:58;;;;;;;6.17;4.47;;;3.30;87.10;;;;;;5007590;28;20181;-86
2021/03/02 06:51:31;;;;;;;7.30;3.67;;;3.40;86.40;;;;;;4988321;28;20204;-85
2021/03/02 06:54:04;;;;;;;5.53;3.87;;;2.70;85.50;;;;;;5002958;28;20182;-85
2021/03/02 06:56:30;;;;;;;10.03;5.40;;;3.50;85.60;;;;;;5015153;28;20209;-86
2021/03/02 06:59:16;;;;;;;7.57;4.57;;;3.50;84.80;;;;;;5060656;28;20645;-86
2021/03/02 07:01:47;;;;;;;5.80;3.93;;;3.60;84.80;;;;;;5055271;28;20213;-86
2021/03/02 07:04:14;;;;;;;7.33;4.40;;;3.60;84.20;;;;;;5055775;28;20283;-86
2021/03/02 07:06:47;;;;;;;6.90;4.07;;;3.60;84.80;;;;;;5056344;28;20197;-88
2021/03/02 07:09:16;;;;;;;6.87;4.67;;;3.70;84.00;;;;;;5047777;28;20193;-87
2021/03/02 07:11:41;;;;;;;8.40;4.23;;;3.90;81.90;;;;;;5054157;28;20660;-87
2021/03/02 07:14:12;;;;;;;6.33;4.63;;;3.90;82.40;;;;;;5058128;28;20198;-87
2021/03/02 07:16:41;;;;;;;12.63;4.80;;;3.80;83.10;;;;;;5052455;28;20210;-88
2021/03/02 07:19:09;;;;;;;7.30;4.30;;;4.00;82.90;;;;;;5056698;28;20225;-87
2021/03/02 07:21:39;;;;;;;7.07;4.93;;;4.60;79.70;;;;;;5042733;28;20622;-88
2021/03/02 07:24:08;;;;;;;7.40;4.77;;;4.90;76.90;;;;;;5053488;28;20203;-87
2021/03/02 07:26:37;;;;;;;5.50;4.17;;;5.00;75.70;;;;;;5056483;28;20190;-87
2021/03/02 07:29:04;;;;;;;5.90;3.97;;;5.10;75.10;;;;;;5074849;28;20643;-87
2021/03/02 07:31:31;;;;;;;8.03;5.27;;;5.10;74.70;;;;;;5040270;28;20244;-88
2021/03/02 07:34:00;;;;;;;7.07;4.17;;;4.90;75.20;;;;;;5056157;28;20257;-88
2021/03/02 07:36:32;;;;;;;5.80;4.47;;;4.80;75.40;;;;;;5055802;28;20211;-86
2021/03/02 07:39:16;;;;;;;8.07;4.40;;;4.80;76.90;;;;;;5045854;28;20278;-87
2021/03/02 07:41:43;;;;;;;9.40;4.03;;;4.90;76.30;;;;;;5046637;28;20176;-87
2021/03/02 07:44:09;;;;;;;5.07;4.03;;;5.00;75.60;;;;;;5044563;28;20240;-85
2021/03/02 07:46:38;;;;;;;8.10;4.30;;;5.00;75.70;;;;;;5058434;28;20228;-87
2021/03/02 07:49:31;;;;;;;9.43;5.53;;;5.10;74.80;;;;;;5056141;28;20195;-86
2021/03/02 07:51:57;;;;;;;7.50;4.87;;;5.20;74.60;;;;;;5045304;28;20295;-87
2021/03/02 07:54:23;;;;;;;7.07;4.90;;;5.20;73.80;;;;;;5058978;28;20182;-86
2021/03/02 07:57:09;;;;;;;9.77;5.10;;;5.40;73.40;;;;;;5056371;28;20206;-86
2021/03/02 07:59:35;;;;;;;8.40;5.13;;;5.50;72.60;;;;;;5055388;28;20218;-86
2021/03/02 08:02:21;;;;;;;6.73;4.50;;;5.70;71.20;;;;;;5051677;28;20206;-83
2021/03/02 08:04:48;;;;;;;7.00;4.10;;;5.70;71.70;;;;;;5056937;28;20183;-82
2021/03/02 08:07:25;;;;;;;5.63;3.83;;;5.90;70.90;;;;;;5057625;28;20183;-83
2021/03/02 08:09:56;;;;;;;7.33;4.37;;;6.00;70.20;;;;;;5051173;28;20241;-84
2021/03/02 08:12:36;;;;;;;6.50;3.90;;;6.00;69.60;;;;;;5052320;28;20198;-82
2021/03/02 08:15:22;;;;;;;6.17;4.53;;;6.20;69.50;;;;;;5057540;28;20191;-84
2021/03/02 08:17:47;;;;;;;5.57;4.20;;;6.30;69.10;;;;;;5055145;28;20194;-84
2021/03/02 08:20:13;;;;;;;7.67;4.50;;;;;;;;;;5059904;28;20184;-84
2021/03/02 08:22:42;;;;;;;6.67;4.50;;;6.50;67.30;;;;;;5060120;28;20206;-83
2021/03/02 08:25:10;;;;;;;5.47;3.87;;;6.60;66.90;;;;;;5054067;28;20244;-83
2021/03/02 08:27:51;;;;;;;8.63;4.30;;;6.60;66.70;;;;;;5060945;28;20202;-84
2021/03/02 08:30:26;;;;;;;7.90;4.10;;;6.60;66.50;;;;;;5056270;28;20190;-84
2021/03/02 08:32:53;;;;;;;5.87;3.83;;;6.70;66.60;;;;;;5056140;28;20198;-83
2021/03/02 08:35:23;;;;;;;7.27;4.73;;;6.90;65.60;;;;;;5054785;28;20266;-82
2021/03/02 08:38:03;;;;;;;8.67;4.47;;;7.00;65.00;;;;;;5053093;28;20808;-83
2021/03/02 08:40:31;;;;;;;5.03;3.83;;;7.00;65.70;;;;;;5070750;28;20204;-82
2021/03/02 08:43:23;;;;;;;6.53;4.13;;;7.10;64.90;;;;;;5052974;28;20178;-82
2021/03/02 08:45:54;;;;;;;5.43;3.80;;;7.20;64.20;;;;;;5040028;28;20187;-82
2021/03/02 08:48:22;;;;;;;5.23;2.90;;;7.20;63.00;;;;;;5059434;28;20186;-82
2021/03/02 08:50:52;;;;;;;7.63;4.97;;;7.10;62.70;;;;;;5058296;28;20201;-82
2021/03/02 08:53:31;;;;;;;7.50;4.53;;;7.00;63.50;;;;;;5050861;28;20205;-82
2021/03/02 08:55:57;;;;;;;5.60;3.90;;;7.00;63.20;;;;;;5056048;28;20202;-82
2021/03/02 08:58:38;;;;;;;6.97;4.30;;;7.10;62.90;;;;;;5059487;28;20221;-81
2021/03/02 09:01:08;;;;;;;6.67;4.53;;;7.10;63.10;;;;;;5058437;28;20281;-82
2021/03/02 09:03:38;;;;;;;6.73;3.70;;;7.30;61.60;;;;;;5062401;28;20202;-82
2021/03/02 09:06:22;;;;;;;4.90;3.63;;;7.40;62.20;;;;;;5060930;28;20174;-82
2021/03/02 09:08:57;;;;;;;8.43;3.97;;;7.40;62.30;;;;;;5060351;28;20198;-82
2021/03/02 09:11:29;;;;;;;7.50;4.30;;;7.50;62.20;;;;;;5056277;28;20259;-82
2021/03/02 09:13:57;;;;;;;6.77;3.87;;;7.60;62.40;;;;;;5046618;28;20646;-82
2021/03/02 09:16:38;;;;;;;7.93;4.13;;;7.60;61.60;;;;;;5053651;28;20206;-82
2021/03/02 09:19:18;;;;;;;6.67;3.73;;;7.80;60.80;;;;;;5050276;28;20181;-82
2021/03/02 09:21:56;;;;;;;7.00;4.10;;;7.80;61.00;;;;;;5073703;28;20528;-82
2021/03/02 09:24:25;;;;;;;5.87;4.67;;;7.90;61.60;;;;;;5059824;28;20182;-80
2021/03/02 09:27:09;;;;;;;7.67;4.40;;;8.10;60.00;;;;;;5058951;28;20269;-80
2021/03/02 09:29:46;;;;;;;5.20;3.97;;;8.10;60.60;;;;;;5055385;28;20192;-84
2021/03/02 09:32:15;;;;;;;5.60;4.27;;;8.40;60.00;;;;;;5049603;28;20603;-79
2021/03/02 09:34:46;;;;;;;6.40;4.00;;;8.40;60.00;;;;;;5054768;28;20187;-79
2021/03/02 09:37:15;;;;;;;6.20;3.97;;;8.30;59.70;;;;;;5053568;28;20210;-81
2021/03/02 09:39:43;;;;;;;6.03;3.83;;;8.50;59.40;;;;;;5050465;28;20187;-80
2021/03/02 09:42:21;;;;;;;6.47;4.57;;;8.50;59.20;;;;;;5055550;28;20197;-80
2021/03/02 09:44:55;;;;;;;6.50;4.23;;;8.50;59.80;;;;;;5051648;28;20283;-80
2021/03/02 09:47:32;;;;;;;8.50;4.63;;;8.50;59.70;;;;;;5053384;28;20202;-80
2021/03/02 09:50:04;;;;;;;6.33;4.37;;;8.70;59.50;;;;;;5048210;28;20283;-80
2021/03/02 09:52:34;;;;;;;7.37;4.10;;;8.90;58.60;;;;;;5046810;28;20178;-82
2021/03/02 09:55:18;;;;;;;4.53;3.50;;;8.90;58.30;;;;;;5050587;28;20185;-81
2021/03/02 09:57:50;;;;;;;7.80;4.93;;;9.00;57.40;;;;;;5065210;28;20227;-81
2021/03/02 10:00:17;;;;;;;5.93;4.40;;;9.00;57.20;;;;;;5063199;28;20530;-81
2021/03/02 10:02:55;;;;;;;6.83;4.67;;;9.10;55.20;;;;;;5062566;28;20770;-80
2021/03/02 10:05:42;;;;;;;8.50;4.80;;;9.10;55.50;;;;;;5053126;28;20190;-82
2021/03/02 10:08:26;;;;;;;6.50;4.20;;;9.20;55.30;;;;;;5063858;28;20187;-81
2021/03/02 10:10:54;;;;;;;9.33;5.13;;;9.20;55.60;;;;;;5052870;28;20648;-81
2021/03/02 10:13:35;;;;;;;10.83;5.33;;;9.30;55.30;;;;;;5059390;28;20337;-81
2021/03/02 10:16:15;;;;;;;9.40;4.77;;;9.40;55.40;;;;;;5062653;28;20317;-81
2021/03/02 10:18:53;;;;;;;7.47;4.93;;;9.20;55.20;;;;;;5063576;28;20187;-80
2021/03/02 10:21:21;;;;;;;6.97;4.30;;;9.50;55.20;;;;;;5066110;28;20178;-82
2021/03/02 10:23:49;;;;;;;10.57;4.77;;;9.50;55.50;;;;;;5067934;28;20235;-81
2021/03/02 10:26:34;;;;;;;9.87;5.17;;;9.60;55.10;;;;;;5067316;28;20262;-81
2021/03/02 10:29:02;;;;;;;8.20;4.70;;;9.90;54.10;;;;;;5061881;28;20547;-82
2021/03/02 10:31:28;;;;;;;6.13;3.97;;;9.90;53.60;;;;;;5065222;28;20178;-82
2021/03/02 10:33:54;;;;;;;7.87;4.53;;;10.00;52.90;;;;;;5064231;28;20178;-82
2021/03/02 10:36:33;;;;;;;6.97;4.73;;;10.00;52.20;;;;;;5058664;28;20180;-82
2021/03/02 10:39:00;;;;;;;8.73;5.30;;;10.00;52.90;;;;;;5051463;28;20201;-82
2021/03/02 10:41:27;;;;;;;10.03;5.77;;;10.20;52.60;;;;;;5065885;28;20531;-83
2021/03/02 10:43:54;;;;;;;6.83;3.87;;;10.30;52.60;;;;;;5063323;28;20179;-81
2021/03/02 10:46:23;;;;;;;8.83;5.50;;;10.40;51.40;;;;;;5064353;28;20179;-81
2021/03/02 10:48:49;;;;;;;7.23;4.67;;;10.50;51.20;;;;;;5059329;28;20183;-81
2021/03/02 10:51:16;;;;;;;7.37;4.13;;;10.50;51.00;;;;;;5049006;28;20194;-81
2021/03/02 10:53:42;;;;;;;8.57;4.70;;;10.40;51.90;;;;;;5061660;28;20179;-81
2021/03/02 10:56:08;;;;;;;11.13;5.27;;;10.40;51.70;;;;;;5055756;28;20234;-81
2021/03/02 10:58:35;;;;;;;6.37;4.77;;;10.50;51.80;;;;;;5055910;28;20230;-81
2021/03/02 11:01:01;;;;;;;8.87;4.93;;;10.60;51.10;;;;;;5066697;28;20198;-81
2021/03/02 11:03:26;;;;;;;7.47;4.77;;;10.80;50.10;;;;;;5075588;28;20295;-81
2021/03/02 11:05:52;;;;;;;9.87;4.93;;;10.90;50.50;;;;;;5056320;28;20676;-81
2021/03/02 11:08:21;;;;;;;9.27;5.30;;;11.00;49.80;;;;;;5060320;28;20213;-81
2021/03/02 11:10:49;;;;;;;7.20;4.50;;;11.20;50.00;;;;;;5060278;28;20193;-81
2021/03/02 11:13:15;;;;;;;7.20;4.33;;;11.10;49.80;;;;;;5042698;28;20203;-81
2021/03/02 11:15:41;;;;;;;9.07;4.80;;;11.20;48.90;;;;;;5073854;28;20186;-81
2021/03/02 11:18:07;;;;;;;10.40;4.90;;;11.20;48.90;;;;;;5066880;28;20218;-82
2021/03/02 11:20:34;;;;;;;8.40;4.60;;;11.40;48.30;;;;;;5062081;28;20250;-81
2021/03/02 11:23:01;;;;;;;7.13;5.07;;;11.30;48.70;;;;;;5063815;28;20210;-81
2021/03/02 11:25:26;;;;;;;8.27;4.67;;;11.60;49.90;;;;;;5050428;28;20198;-82
2021/03/02 11:27:52;;;;;;;8.83;4.73;;;11.70;47.80;;;;;;5060961;28;20336;-82
2021/03/02 11:30:19;;;;;;;6.50;4.70;;;12.10;48.10;;;;;;5063303;28;20190;-81
2021/03/02 11:32:45;;;;;;;7.27;4.60;;;12.00;48.00;;;;;;5062905;28;20204;-81
2021/03/02 11:35:11;;;;;;;6.70;4.50;;;12.10;48.10;;;;;;5055193;28;20194;-81
2021/03/02 11:37:41;;;;;;;6.63;4.40;;;12.40;47.00;;;;;;5086576;28;20218;-82
2021/03/02 11:40:09;;;;;;;10.80;4.93;;;13.70;47.30;;;;;;5083489;28;20186;-81
2021/03/02 11:42:35;;;;;;;6.50;4.13;;;12.30;45.30;;;;;;5075134;28;20201;-82
2021/03/02 11:45:02;;;;;;;8.63;5.07;;;12.40;45.90;;;;;;5065892;28;20506;-81
2021/03/02 11:47:28;;;;;;;8.93;4.83;;;12.60;45.40;;;;;;5056558;28;20201;-81
2021/03/02 11:49:54;;;;;;;6.60;4.77;;;12.90;45.10;;;;;;5061887;28;20273;-81
2021/03/02 11:52:21;;;;;;;5.93;4.27;;;13.40;44.20;;;;;;5063036;28;20186;-82
2021/03/02 11:54:47;;;;;;;6.17;4.03;;;13.80;44.40;;;;;;5061867;28;20257;-80
2021/03/02 11:57:14;;;;;;;5.07;4.07;;;14.50;42.90;;;;;;5061160;28;20202;-80
2021/03/02 11:59:39;;;;;;;9.13;4.07;;;15.30;42.00;;;;;;5061579;28;20244;-81
2021/03/02 12:02:05;;;;;;;6.07;4.00;;;16.30;38.90;;;;;;5058942;28;20223;-81
2021/03/02 12:04:31;;;;;;;7.40;4.50;;;17.50;34.80;;;;;;5058930;28;20349;-81
2021/03/02 12:06:57;;;;;;;6.70;4.43;;;18.30;33.80;;;;;;5062024;28;20204;-81
2021/03/02 12:09:22;;;;;;;6.93;4.20;;;18.60;32.90;;;;;;5062334;28;20194;-81
2021/03/02 12:11:48;;;;;;;6.13;4.30;;;18.90;32.80;;;;;;5065277;28;20178;-82
2021/03/02 12:14:14;;;;;;;5.87;4.37;;;19.30;33.30;;;;;;5057822;28;20190;-82
2021/03/02 12:16:39;;;;;;;4.63;3.58;;;19.90;32.30;;;;;;5048759;28;20255;-82
2021/03/02 12:19:05;;;;;;;6.50;4.43;;;20.70;30.80;;;;;;5058529;28;20191;-82
2021/03/02 12:21:31;;;;;;;6.93;4.20;;;21.20;30.00;;;;;;5060842;28;20190;-82
2021/03/02 12:23:57;;;;;;;6.10;4.47;;;21.70;29.40;;;;;;5062344;28;20242;-82
2021/03/02 12:26:22;;;;;;;6.55;4.53;;;21.70;28.00;;;;;;5057706;28;20302;-81
2021/03/02 12:28:48;;;;;;;5.53;3.95;;;21.90;28.70;;;;;;5047326;28;20194;-82
2021/03/02 12:31:14;;;;;;;7.00;4.30;;;22.40;28.30;;;;;;5054828;28;20247;-82
2021/03/02 12:33:40;;;;;;;5.32;4.03;;;23.20;27.70;;;;;;5052283;28;20244;-81
2021/03/02 12:36:06;;;;;;;6.30;4.20;;;23.90;26.00;;;;;;5065165;28;20189;-83
2021/03/02 12:38:32;;;;;;;4.43;3.85;;;24.00;26.40;;;;;;5069553;28;20267;-82
2021/03/02 12:40:57;;;;;;;5.30;4.55;;;24.10;25.30;;;;;;5059971;28;20175;-82
2021/03/02 12:43:23;;;;;;;5.95;4.15;;;23.50;26.10;;;;;;5059212;28;20578;-81
2021/03/02 12:45:49;;;;;;;5.60;3.67;;;23.70;26.60;;;;;;5057572;28;20170;-81
2021/03/02 12:48:15;;;;;;;5.63;4.20;;;24.30;25.80;;;;;;5062410;28;20230;-81
2021/03/02 12:50:40;;;;;;;5.57;4.07;;;24.60;24.80;;;;;;5054395;28;20186;-81
2021/03/02 12:53:06;;;;;;;6.47;4.15;;;24.50;25.20;;;;;;5054774;28;20264;-82
2021/03/02 12:55:32;;;;;;;9.52;4.15;;;24.40;25.20;;;;;;5058608;28;20187;-81
2021/03/02 12:57:58;;;;;;;6.05;3.95;;;24.40;24.90;;;;;;5046482;28;20207;-82
2021/03/02 13:00:26;;;;;;;5.00;3.75;;;24.40;24.40;;;;;;5052524;28;20172;-81
2021/03/02 13:02:53;;;;;;;5.63;4.07;;;23.90;24.30;;;;;;5064779;28;20214;-82
2021/03/02 13:05:20;;;;;;;6.22;4.07;;;23.70;24.70;;;;;;5059695;28;20269;-82